Time;durP1;ratioP1;P1;durP2;ratioP2;P2;SDS_P1;SDS_P2;PMS_P1;PMS_P2;Temp;Humidity;BMP_temperature;BMP_pressure;BME280_temperature;BME280_humidity;BME280_pressure;Samples;Min_cycle;Max_cycle;Signal;HPM_P1;HPM_P2
2024/03/05 00:00:39;;;;;;;1.80;1.70;;;;;;;5.97;79.34;99304.91;4978636;28;20084;-43
2024/03/05 00:03:07;;;;;;;2.17;1.95;;;;;;;5.90;79.31;99298.91;4985563;28;20046;-42
2024/03/05 00:05:34;;;;;;;1.63;1.52;;;;;;;5.93;80.16;99298.03;4987504;28;20141;-45
2024/03/05 00:08:02;;;;;;;2.17;1.85;;;;;;;5.92;79.67;99304.88;4983009;28;20058;-46
2024/03/05 00:10:31;;;;;;;2.38;2.17;;;;;;;5.98;79.67;99303.22;4981710;28;20102;-46
2024/03/05 00:12:58;;;;;;;2.30;2.00;;;;;;;5.98;79.49;99310.94;4994765;28;20060;-47
2024/03/05 00:15:26;;;;;;;1.08;0.85;;;;;;;6.01;79.83;99303.22;4996684;28;20538;-50
2024/03/05 00:17:53;;;;;;;1.90;1.80;;;;;;;5.99;79.76;99316.06;5007763;28;20518;-45
2024/03/05 00:20:20;;;;;;;2.38;2.22;;;;;;;5.94;79.86;99304.06;5000272;28;20045;-47
2024/03/05 00:22:48;;;;;;;5.55;2.33;;;;;;;5.97;78.93;99311.75;5006712;28;20045;-46
2024/03/05 00:25:16;;;;;;;2.35;2.22;;;;;;;5.98;79.29;99308.34;5002451;28;20108;-46
2024/03/05 00:27:44;;;;;;;1.52;0.63;;;;;;;5.99;80.17;99307.50;5004310;28;20602;-45
2024/03/05 00:30:13;;;;;;;1.75;1.55;;;;;;;5.99;79.38;99313.50;5008261;28;20069;-48
2024/03/05 00:32:41;;;;;;;1.92;1.80;;;;;;;6.00;79.74;99310.06;5009734;28;20080;-44
2024/03/05 00:35:09;;;;;;;3.10;2.83;;;;;;;6.02;79.09;99312.66;5009022;28;20053;-47
2024/03/05 00:37:37;;;;;;;2.40;1.75;;;;;;;6.00;80.49;99304.06;5006843;28;20054;-45
2024/03/05 00:40:12;;;;;;;2.20;1.80;;;;;;;6.03;80.35;99309.22;5011292;28;20069;-45
2024/03/05 00:42:39;;;;;;;1.90;1.60;;;;;;;6.00;79.67;99304.94;4985503;28;20058;-50
2024/03/05 00:45:06;;;;;;;2.42;2.22;;;;;;;6.00;79.54;99306.63;5009561;28;20054;-46
2024/03/05 00:47:34;;;;;;;1.88;1.77;;;;;;;6.03;79.08;99312.69;5011064;28;20132;-48
2024/03/05 00:50:05;;;;;;;2.40;2.30;;;;;;;6.03;79.55;99309.22;5005680;28;20057;-48
2024/03/05 00:52:32;;;;;;;2.53;2.15;;;;;;;6.03;79.82;99309.22;5005023;28;20113;-49
2024/03/05 00:55:00;;;;;;;1.85;1.15;;;;;;;6.05;80.04;99312.69;5004186;28;20057;-46
2024/03/05 00:57:27;;;;;;;5.65;1.85;;;;;;;6.08;79.35;99315.25;5004729;28;20052;-42
2024/03/05 00:59:54;;;;;;;4.03;2.40;;;;;;;6.09;78.83;99317.00;5000423;28;20046;-46
2024/03/05 01:02:21;;;;;;;2.10;1.98;;;;;;;6.06;78.89;99314.41;5003980;28;20104;-46
2024/03/05 01:04:49;;;;;;;1.95;1.77;;;;;;;6.07;78.64;99325.53;5005100;28;20054;-41
2024/03/05 01:07:17;;;;;;;1.67;1.38;;;;;;;6.02;79.50;99322.94;5002355;28;20127;-47
2024/03/05 01:09:44;;;;;;;2.35;1.92;;;;;;;6.02;79.45;99317.78;5006553;28;20053;-45
2024/03/05 01:12:11;;;;;;;2.30;2.05;;;;;;;6.00;79.39;99320.34;5006092;28;20807;-46
2024/03/05 01:14:38;;;;;;;2.13;1.92;;;;;;;6.00;79.91;99330.63;5004029;28;20091;-45
2024/03/05 01:17:04;;;;;;;3.58;2.00;;;;;;;6.02;79.34;99317.78;5006300;28;20048;-45
2024/03/05 01:19:32;;;;;;;1.95;1.80;;;;;;;5.94;80.38;99333.16;5008222;28;20529;-47
2024/03/05 01:22:00;;;;;;;5.50;2.15;;;;;;;5.93;80.68;99331.47;5012898;28;20092;-48
2024/03/05 01:24:28;;;;;;;4.45;2.20;;;;;;;6.00;79.80;99332.34;5010948;28;20042;-45
2024/03/05 01:26:54;;;;;;;2.42;2.05;;;;;;;6.02;79.69;99338.38;5004226;28;20116;-45
2024/03/05 01:29:21;;;;;;;2.13;1.88;;;;;;;6.00;80.76;99330.63;5006035;28;20057;-42
2024/03/05 01:31:56;;;;;;;4.07;2.72;;;;;;;6.00;80.36;99340.06;5007777;28;20046;-44
2024/03/05 01:34:23;;;;;;;3.13;2.72;;;;;;;6.00;80.02;99342.63;5002957;28;20149;-45
2024/03/05 01:36:56;;;;;;;3.70;1.95;;;;;;;6.02;80.86;99343.50;5004248;28;20499;-45
2024/03/05 01:39:25;;;;;;;3.22;2.97;;;;;;;6.04;80.17;99346.94;5003166;28;20151;-44
2024/03/05 01:41:52;;;;;;;3.60;2.88;;;;;;;6.02;80.17;99348.66;5007966;28;20128;-45
2024/03/05 01:44:21;;;;;;;5.07;1.73;;;;;;;6.04;81.06;99344.38;5006509;28;20294;-46
2024/03/05 01:46:51;;;;;;;3.10;2.80;;;;;;;6.08;79.49;99343.53;5000120;28;20053;-48
2024/03/05 01:49:20;;;;;;;2.60;2.40;;;;;;;6.10;80.33;99351.25;5001156;28;20064;-44
2024/03/05 01:51:48;;;;;;;4.65;3.03;;;;;;;6.12;79.93;99350.41;5006970;28;20129;-45
2024/03/05 01:54:17;;;;;;;2.60;1.13;;;;;;;6.12;80.18;99352.16;5004575;28;20407;-45
2024/03/05 01:56:49;;;;;;;2.28;1.00;;;;;;;6.12;79.48;99350.41;5009811;28;20727;-45
2024/03/05 01:59:17;;;;;;;2.03;1.70;;;;;;;6.15;79.64;99344.44;5002583;28;20052;-43
2024/03/05 02:01:45;;;;;;;2.60;1.95;;;;;;;6.09;79.91;99345.28;5001726;28;20064;-45
2024/03/05 02:04:12;;;;;;;2.75;2.55;;;;;;;6.08;79.65;99353.81;5001891;28;20103;-44
2024/03/05 02:06:41;;;;;;;2.65;2.45;;;;;;;6.04;80.45;99352.09;5000987;28;20085;-47
2024/03/05 02:09:11;;;;;;;3.15;2.75;;;;;;;6.01;80.78;99359.78;5002979;28;20103;-48
2024/03/05 02:11:39;;;;;;;2.55;2.35;;;;;;;6.03;79.78;99358.06;5003746;28;20049;-45
2024/03/05 02:14:22;;;;;;;1.98;1.77;;;;;;;6.04;79.41;99359.81;5000294;28;20073;-45
2024/03/05 02:16:50;;;;;;;3.85;2.85;;;;;;;6.02;79.91;99358.94;5002249;28;20521;-47
2024/03/05 02:19:18;;;;;;;3.65;2.38;;;;;;;6.00;80.17;99363.19;5002863;28;20046;-44
2024/03/05 02:21:45;;;;;;;2.78;2.03;;;;;;;6.04;79.76;99368.41;5000169;28;20050;-48
2024/03/05 02:24:12;;;;;;;4.38;2.92;;;;;;;6.04;78.82;99364.94;5000574;28;20069;-46
2024/03/05 02:26:39;;;;;;;5.07;3.17;;;;;;;6.03;79.19;99364.13;5002574;28;20164;-46
2024/03/05 02:29:09;;;;;;;5.10;2.58;;;;;;;6.04;80.30;99367.53;5009860;28;20057;-42
2024/03/05 02:31:36;;;;;;;5.57;2.22;;;;;;;6.05;78.93;99374.41;5011881;28;20050;-45
2024/03/05 02:34:04;;;;;;;2.55;2.35;;;;;;;6.02;80.32;99374.34;5009191;28;20132;-46
2024/03/05 02:36:34;;;;;;;3.53;2.20;;;;;;;6.02;79.29;99370.06;5007404;28;20090;-46
2024/03/05 02:39:00;;;;;;;2.55;1.98;;;;;;;5.99;79.02;99376.91;5003033;28;20061;-44
2024/03/05 02:41:27;;;;;;;3.35;2.00;;;;;;;5.99;79.88;99375.19;5010398;28;20053;-48
2024/03/05 02:43:55;;;;;;;3.08;2.75;;;;;;;6.01;78.64;99382.94;5005648;28;20123;-45
2024/03/05 02:46:24;;;;;;;2.80;2.55;;;;;;;5.99;78.66;99385.47;5011524;28;20092;-46
2024/03/05 02:48:51;;;;;;;3.33;3.03;;;;;;;5.96;79.91;99385.47;5005829;28;20060;-46
2024/03/05 02:51:17;;;;;;;2.58;2.38;;;;;;;5.95;79.53;99382.88;5006304;28;20140;-47
2024/03/05 02:53:44;;;;;;;5.28;3.42;;;;;;;5.97;79.67;99397.44;5003366;28;20057;-42
2024/03/05 02:56:12;;;;;;;3.50;2.78;;;;;;;5.99;78.56;99394.91;5001789;28;20065;-47
2024/03/05 02:58:39;;;;;;;3.55;2.80;;;;;;;6.00;79.65;99396.59;5004245;28;20049;-47
2024/03/05 03:01:10;;;;;;;5.85;2.95;;;;;;;6.04;78.68;99394.09;5009122;28;20116;-44
2024/03/05 03:03:37;;;;;;;3.10;2.80;;;;;;;6.04;78.28;99399.25;5013925;28;20111;-45
2024/03/05 03:06:05;;;;;;;7.43;2.80;;;;;;;6.02;79.09;99400.91;5012334;28;20054;-45
2024/03/05 03:08:33;;;;;;;4.82;2.45;;;;;;;6.03;79.41;99406.91;5005920;28;20043;-45
2024/03/05 03:11:00;;;;;;;4.60;2.53;;;;;;;6.04;78.96;99406.09;5014803;28;20466;-42
2024/03/05 03:13:28;;;;;;;4.35;2.58;;;;;;;6.04;79.30;99401.81;5011811;28;20100;-45
2024/03/05 03:15:55;;;;;;;5.07;2.58;;;;;;;6.06;78.64;99401.81;5008977;28;20061;-45
2024/03/05 03:18:21;;;;;;;4.45;2.92;;;;;;;6.02;79.52;99402.63;5007750;28;20586;-45
2024/03/05 03:20:48;;;;;;;5.57;2.65;;;;;;;6.04;78.25;99408.66;5012632;28;20045;-43
2024/03/05 03:23:14;;;;;;;4.13;2.83;;;;;;;6.04;79.97;99406.97;5005412;28;20069;-42
2024/03/05 03:25:41;;;;;;;3.97;2.65;;;;;;;6.07;79.14;99413.81;5005136;28;20458;-47
2024/03/05 03:28:08;;;;;;;5.43;2.65;;;;;;;6.07;79.52;99416.41;5008654;28;20046;-43
2024/03/05 03:30:34;;;;;;;2.67;1.88;;;;;;;6.10;79.19;99419.00;5004952;28;20054;-44
2024/03/05 03:33:04;;;;;;;6.32;2.67;;;;;;;6.13;77.90;99426.72;5004813;28;20058;-43
2024/03/05 03:35:31;;;;;;;9.38;2.13;;;;;;;6.15;78.78;99421.59;5007689;28;20412;-43
2024/03/05 03:37:58;;;;;;;4.75;2.95;;;;;;;6.16;78.57;99429.31;5009851;28;20502;-46
2024/03/05 03:40:24;;;;;;;7.00;2.80;;;;;;;6.19;78.54;99432.75;5005366;28;20057;-42
2024/03/05 03:42:51;;;;;;;4.78;4.07;;;;;;;6.17;78.78;99436.16;4997551;28;20046;-49
2024/03/05 03:45:19;;;;;;;4.72;2.22;;;;;;;6.13;79.30;99429.28;5003683;28;20056;-47
2024/03/05 03:47:46;;;;;;;3.75;2.63;;;;;;;6.13;78.64;99428.44;5006476;28;20065;-45
2024/03/05 03:50:13;;;;;;;7.45;3.67;;;;;;;6.07;78.31;99429.25;5010019;28;20097;-45
2024/03/05 03:52:41;;;;;;;4.75;2.88;;;;;;;6.09;79.15;99431.84;5003917;28;20053;-46
2024/03/05 03:55:08;;;;;;;7.25;4.30;;;;;;;6.07;78.42;99436.97;5002500;28;20109;-49
2024/03/05 03:57:35;;;;;;;6.32;3.97;;;;;;;6.06;79.08;99437.81;5007498;28;20072;-48
2024/03/05 04:00:07;;;;;;;4.03;2.90;;;;;;;6.07;78.42;99439.53;4998177;28;20069;-48
2024/03/05 04:02:36;;;;;;;4.55;3.10;;;;;;;6.07;78.30;99443.81;5004540;28;20591;-47
2024/03/05 04:05:04;;;;;;;7.85;2.65;;;;;;;6.10;78.40;99454.13;5011510;28;20470;-45
2024/03/05 04:07:32;;;;;;;5.25;3.33;;;;;;;6.11;78.48;99454.13;5003011;28;20147;-45
2024/03/05 04:10:00;;;;;;;4.93;3.53;;;;;;;6.16;78.00;99460.19;5013662;28;20052;-46
2024/03/05 04:12:28;;;;;;;5.68;2.92;;;;;;;6.22;77.96;99464.50;4999025;28;20050;-43
2024/03/05 04:14:56;;;;;;;6.63;3.95;;;;;;;6.25;78.92;99468.78;5010256;28;20046;-47
2024/03/05 04:17:22;;;;;;;10.63;3.92;;;;;;;6.25;78.96;99463.66;5010090;28;20049;-44
2024/03/05 04:19:49;;;;;;;9.85;3.75;;;;;;;6.24;79.03;99467.03;4999830;28;20058;-46
2024/03/05 04:22:17;;;;;;;7.72;2.95;;;;;;;6.25;79.20;99473.94;5003631;28;20057;-46
2024/03/05 04:24:52;;;;;;;5.53;3.13;;;;;;;6.29;78.47;99473.94;5000867;28;20056;-47
2024/03/05 04:27:19;;;;;;;10.75;4.07;;;;;;;6.32;78.80;99470.53;5002158;28;20061;-44
2024/03/05 04:29:47;;;;;;;8.77;3.92;;;;;;;6.38;77.12;99480.00;5002260;28;20058;-45
2024/03/05 04:32:15;;;;;;;9.48;3.65;;;;;;;6.41;77.46;99480.88;5008837;28;20056;-44
2024/03/05 04:34:49;;;;;;;6.65;3.30;;;;;;;6.45;77.50;99478.31;5001593;28;20652;-46
2024/03/05 04:37:17;;;;;;;7.25;2.25;;;;;;;6.34;78.08;99481.69;5004057;28;20422;-48
2024/03/05 04:39:44;;;;;;;3.22;2.38;;;;;;;6.34;78.80;99493.69;5000267;28;20046;-45
2024/03/05 04:42:11;;;;;;;5.13;3.05;;;;;;;6.33;78.69;99490.25;5013814;28;20057;-47
2024/03/05 04:44:43;;;;;;;8.82;2.88;;;;;;;6.32;77.98;99493.69;4999352;28;20491;-44
2024/03/05 04:47:10;;;;;;;3.03;2.72;;;;;;;6.27;79.31;99498.81;5000041;28;20064;-49
2024/03/05 04:49:37;;;;;;;6.65;3.25;;;;;;;6.30;79.30;99508.25;5008457;28;20054;-46
2024/03/05 04:52:04;;;;;;;3.35;2.92;;;;;;;6.32;79.05;99514.28;5002383;28;20084;-46
2024/03/05 04:54:30;;;;;;;4.38;3.00;;;;;;;6.27;78.37;99508.22;5010537;28;20060;-46
2024/03/05 04:56:57;;;;;;;6.53;3.63;;;;;;;6.29;78.12;99506.53;5013758;28;20053;-47
2024/03/05 04:59:24;;;;;;;5.22;2.70;;;;;;;6.27;78.78;99518.50;5009144;28;20048;-47
2024/03/05 05:01:50;;;;;;;3.67;3.35;;;;;;;6.22;80.39;99522.78;5007992;28;20058;-43
2024/03/05 05:04:17;;;;;;;8.80;3.15;;;;;;;6.25;79.36;99515.09;5011568;28;20107;-48
2024/03/05 05:06:44;;;;;;;7.15;2.97;;;;;;;6.27;79.55;99513.38;5012749;28;20096;-44
2024/03/05 05:09:10;;;;;;;5.43;2.42;;;;;;;6.28;78.58;99522.78;4999401;28;20599;-47
2024/03/05 05:11:37;;;;;;;10.90;4.50;;;;;;;6.26;78.92;99527.09;5003095;28;20046;-43
2024/03/05 05:14:04;;;;;;;6.80;3.13;;;;;;;6.28;79.27;99527.94;5001809;28;20085;-49
2024/03/05 05:16:31;;;;;;;7.20;3.00;;;;;;;6.29;78.17;99532.25;5008716;28;20137;-44
2024/03/05 05:18:58;;;;;;;6.90;5.03;;;;;;;6.30;78.79;99523.69;5001855;28;20070;-46
2024/03/05 05:21:25;;;;;;;4.60;3.28;;;;;;;6.34;78.25;99521.97;4998747;28;20116;-43
2024/03/05 05:23:51;;;;;;;8.90;3.72;;;;;;;6.37;78.57;99535.72;5001427;28;20116;-45
2024/03/05 05:26:18;;;;;;;6.57;3.75;;;;;;;6.39;78.49;99536.59;4998808;28;20041;-50
2024/03/05 05:28:45;;;;;;;5.50;3.70;;;;;;;6.42;77.78;99540.91;5008067;28;20129;-44
2024/03/05 05:31:24;;;;;;;6.80;3.38;;;;;;;6.43;78.63;99542.63;5011132;28;20444;-47
2024/03/05 05:33:51;;;;;;;7.78;3.22;;;;;;;6.47;77.38;99540.91;5005623;28;20050;-45
2024/03/05 05:36:17;;;;;;;7.38;4.03;;;;;;;6.48;77.52;99542.66;5008573;28;20049;-49
2024/03/05 05:38:44;;;;;;;7.55;3.53;;;;;;;6.47;77.96;99535.78;5003877;28;20732;-45
2024/03/05 05:41:11;;;;;;;6.95;1.92;;;;;;;6.47;78.47;99538.34;5006627;28;20613;-43
2024/03/05 05:43:38;;;;;;;5.72;2.63;;;;;;;6.47;78.86;99540.91;4999168;28;20491;-44
2024/03/05 05:46:05;;;;;;;7.72;3.28;;;;;;;6.47;77.76;99540.91;5000494;28;20544;-46
2024/03/05 05:48:33;;;;;;;9.23;3.53;;;;;;;6.48;77.42;99548.66;4999168;28;20057;-45
2024/03/05 05:51:09;;;;;;;9.27;4.35;;;;;;;6.49;78.80;99544.38;4999766;28;20050;-46
2024/03/05 05:53:37;;;;;;;;;;;;;;;6.42;78.70;99548.63;4993712;28;20052;-48
2024/03/05 05:56:05;;;;;;;4.55;3.00;;;;;;;6.47;77.15;99556.34;4996304;28;19929;-48
2024/03/05 05:58:33;;;;;;;5.55;3.47;;;;;;;6.48;77.88;99551.22;5000153;28;20704;-47
2024/03/05 06:01:04;;;;;;;10.00;3.40;;;;;;;6.51;77.36;99560.66;4998475;28;20081;-44
2024/03/05 06:03:31;;;;;;;5.43;2.67;;;;;;;6.52;78.66;99559.84;4998307;28;20403;-48
2024/03/05 06:05:58;;;;;;;7.32;3.67;;;;;;;6.53;77.50;99561.56;5004668;28;20052;-43
2024/03/05 06:08:25;;;;;;;5.57;3.28;;;;;;;6.53;77.35;99566.69;5005805;28;20038;-50
2024/03/05 06:10:53;;;;;;;5.38;3.45;;;;;;;6.53;77.93;99571.84;5003221;28;20061;-44
2024/03/05 06:13:22;;;;;;;12.05;3.65;;;;;;;6.52;78.15;99570.97;5002952;28;20128;-46
2024/03/05 06:15:49;;;;;;;11.00;3.63;;;;;;;6.54;77.18;99583.84;5000484;28;20038;-43
2024/03/05 06:18:16;;;;;;;9.25;4.28;;;;;;;6.52;77.59;99580.41;5000337;28;20060;-48
2024/03/05 06:20:43;;;;;;;10.35;3.97;;;;;;;6.54;77.28;99583.84;5002483;28;20081;-47
2024/03/05 06:23:11;;;;;;;7.22;4.15;;;;;;;6.56;77.19;99587.31;5002176;28;20056;-47
2024/03/05 06:25:39;;;;;;;6.07;4.53;;;;;;;6.58;77.87;99595.03;5000472;28;20049;-47
2024/03/05 06:28:08;;;;;;;7.55;3.60;;;;;;;6.58;77.93;99601.03;5002602;28;20507;-49
2024/03/05 06:30:35;;;;;;;8.75;3.95;;;;;;;6.59;77.27;99602.78;4999450;28;20053;-46
2024/03/05 06:33:04;;;;;;;9.50;4.05;;;;;;;6.60;77.72;99604.47;5006118;28;20057;-47
2024/03/05 06:35:31;;;;;;;5.97;3.47;;;;;;;6.60;76.91;99604.47;5004377;28;20045;-44
2024/03/05 06:38:00;;;;;;;6.07;3.00;;;;;;;6.62;77.77;99607.06;5005083;28;20411;-46
2024/03/05 06:40:28;;;;;;;6.55;3.95;;;;;;;6.62;77.74;99605.34;4999996;28;20220;-48
2024/03/05 06:43:03;;;;;;;8.82;4.03;;;;;;;6.63;78.22;99611.34;5001726;28;20955;-46
2024/03/05 06:45:34;;;;;;;6.80;3.10;;;;;;;6.64;76.80;99613.06;5001736;28;20455;-46
2024/03/05 06:48:07;;;;;;;6.32;4.30;;;;;;;6.65;77.54;99618.22;5010210;28;20053;-45
2024/03/05 06:50:37;;;;;;;8.80;2.83;;;;;;;6.65;76.77;99615.66;5014440;28;20419;-43
2024/03/05 06:58:41;;;;;;;9.05;4.55;;;;;;;6.59;77.45;99638.78;4993690;28;20054;-45
2024/03/05 07:01:08;;;;;;;7.88;4.18;;;;;;;6.57;77.67;99645.63;5005877;28;20062;-48
2024/03/05 07:03:37;;;;;;;9.85;4.10;;;;;;;6.54;77.45;99636.19;5002009;28;20056;-49
2024/03/05 07:06:09;;;;;;;6.60;4.25;;;;;;;6.55;77.07;99652.47;5005603;28;20054;-45
2024/03/05 07:08:38;;;;;;;9.48;4.30;;;;;;;6.56;77.94;99659.34;5008802;28;20042;-46
2024/03/05 07:11:09;;;;;;;6.20;3.58;;;;;;;6.59;76.92;99649.09;5007673;28;20050;-44
2024/03/05 07:13:38;;;;;;;10.25;4.43;;;;;;;6.61;78.13;99654.22;5008084;28;20123;-48
2024/03/05 07:16:15;;;;;;;10.55;4.55;;;;;;;6.63;77.67;99655.97;5018204;28;20042;-46
2024/03/05 07:18:48;;;;;;;10.23;4.43;;;;;;;6.65;77.51;99656.84;5004406;28;20046;-45
2024/03/05 07:21:17;;;;;;;7.28;3.75;;;;;;;6.68;77.53;99658.56;5001067;28;20046;-45
2024/03/05 07:23:46;;;;;;;12.60;4.70;;;;;;;6.69;76.52;99661.16;4999752;28;20141;-45
2024/03/05 07:26:14;;;;;;;8.85;3.97;;;;;;;6.72;77.08;99655.16;4999542;28;20515;-50
2024/03/05 07:28:43;;;;;;;8.07;4.47;;;;;;;6.75;77.86;99659.50;5003552;28;20037;-43
2024/03/05 07:31:11;;;;;;;8.48;4.55;;;;;;;6.76;77.32;99661.19;5009112;28;20080;-47
2024/03/05 07:33:38;;;;;;;6.63;3.83;;;;;;;6.77;77.47;99663.78;4996990;28;20053;-45
2024/03/05 07:36:06;;;;;;;8.15;4.25;;;;;;;6.79;76.26;99672.38;5000146;28;20064;-48
2024/03/05 07:38:34;;;;;;;9.30;4.60;;;;;;;6.81;76.41;99675.81;4998770;28;20060;-44
2024/03/05 07:41:02;;;;;;;9.55;4.70;;;;;;;6.85;77.31;99676.69;4994319;28;20053;-46
2024/03/05 07:43:43;;;;;;;7.60;4.32;;;;;;;6.87;77.27;99680.16;4997994;28;20062;-48
2024/03/05 07:46:10;;;;;;;8.73;3.90;;;;;;;6.89;77.17;99675.88;4999614;28;20048;-47
2024/03/05 07:48:37;;;;;;;12.05;4.40;;;;;;;6.93;76.15;99679.34;4993638;28;20052;-45
2024/03/05 07:51:04;;;;;;;11.48;3.45;;;;;;;6.94;76.90;99681.94;4999162;28;20442;-48
2024/03/05 07:53:30;;;;;;;12.45;5.45;;;;;;;6.97;77.36;99685.34;5000077;28;20479;-46
2024/03/05 07:55:57;;;;;;;11.10;5.07;;;;;;;6.93;77.57;99687.06;4997956;28;20054;-43
2024/03/05 07:58:24;;;;;;;12.70;5.65;;;;;;;6.88;78.08;99692.16;4998940;28;20038;-46
2024/03/05 08:00:51;;;;;;;10.77;4.65;;;;;;;6.91;76.24;99692.19;4995599;28;20062;-48
2024/03/05 08:03:18;;;;;;;15.88;5.47;;;;;;;6.96;76.84;99699.09;4998402;28;20049;-44
2024/03/05 08:05:44;;;;;;;13.55;5.28;;;;;;;6.99;77.62;99709.41;5000233;28;20088;-50
2024/03/05 08:08:11;;;;;;;12.75;6.30;;;;;;;7.03;76.65;99700.84;4999342;28;20052;-45
2024/03/05 08:10:38;;;;;;;15.73;5.93;;;;;;;7.05;76.71;99704.28;4996387;28;20197;-47
2024/03/05 08:13:04;;;;;;;14.90;6.47;;;;;;;7.08;77.74;99714.59;5000419;28;20049;-46
2024/03/05 08:15:32;;;;;;;13.68;5.70;;;;;;;7.12;76.23;99706.03;4998260;28;20050;-46
2024/03/05 08:17:59;;;;;;;13.25;6.20;;;;;;;7.16;77.85;99717.25;5000287;28;20065;-52
2024/03/05 08:20:26;;;;;;;13.27;5.70;;;;;;;7.22;76.02;99726.72;4999672;28;20060;-43
2024/03/05 08:22:55;;;;;;;17.60;6.25;;;;;;;7.24;76.83;99725.00;4999962;28;20058;-46
2024/03/05 08:25:24;;;;;;;15.48;6.20;;;;;;;7.26;77.27;99729.31;4997723;28;20056;-48
2024/03/05 08:27:58;;;;;;;17.75;6.22;;;;;;;7.29;77.35;99728.47;4997925;28;20450;-43
2024/03/05 08:30:31;;;;;;;13.60;5.43;;;;;;;7.31;77.28;99737.06;4992144;28;20144;-47
2024/03/05 08:33:00;;;;;;;12.50;5.43;;;;;;;7.33;76.59;99745.69;4999840;28;20132;-43
2024/03/05 08:35:30;;;;;;;13.60;5.70;;;;;;;7.36;77.26;99740.53;4997381;28;20422;-48
2024/03/05 08:37:59;;;;;;;13.73;6.50;;;;;;;7.38;76.68;99743.97;4998975;28;21943;-44
2024/03/05 08:40:27;;;;;;;11.65;5.88;;;;;;;7.40;77.49;99744.84;4993695;28;20049;-45
2024/03/05 08:42:55;;;;;;;12.93;5.22;;;;;;;7.43;76.23;99757.75;4996051;28;20376;-46
2024/03/05 08:45:24;;;;;;;15.40;6.32;;;;;;;7.46;76.44;99762.91;4997586;28;20053;-44
2024/03/05 08:47:52;;;;;;;15.43;6.00;;;;;;;7.50;76.16;99760.38;4996552;28;20049;-44
2024/03/05 08:50:21;;;;;;;17.92;6.85;;;;;;;7.53;76.43;99750.91;5002774;28;20046;-50
2024/03/05 08:52:48;;;;;;;16.80;5.78;;;;;;;7.58;76.56;99761.25;5006112;28;20046;-45
2024/03/05 08:55:17;;;;;;;15.25;5.25;;;;;;;7.60;76.06;99772.44;5009225;28;20060;-44
2024/03/05 08:57:45;;;;;;;12.68;5.57;;;;;;;7.62;76.37;99768.16;5005512;28;20058;-46
2024/03/05 09:00:20;;;;;;;14.27;6.03;;;;;;;7.64;76.51;99769.03;5005756;28;20056;-46
2024/03/05 09:03:09;;;;;;;16.02;5.60;;;;;;;7.67;77.16;99776.75;4986062;28;20058;-51
2024/03/05 09:05:36;;;;;;;16.08;6.63;;;;;;;7.69;76.38;99780.22;4996587;28;20034;-45
2024/03/05 09:08:04;;;;;;;15.70;6.30;;;;;;;7.74;76.14;99781.97;5018991;28;20094;-47
2024/03/05 09:10:32;;;;;;;11.50;6.03;;;;;;;7.77;75.93;99784.56;4980064;28;20063;-50
2024/03/05 09:13:00;;;;;;;15.70;6.72;;;;;;;7.80;76.21;99792.31;4987792;28;20054;-44
2024/03/05 09:15:27;;;;;;;13.73;5.97;;;;;;;7.86;76.62;99794.91;5003811;28;20050;-47
2024/03/05 09:17:53;;;;;;;13.63;6.53;;;;;;;7.90;76.11;99796.63;4986319;28;20054;-43
2024/03/05 09:20:20;;;;;;;16.67;6.70;;;;;;;7.93;76.14;99798.34;4976427;28;20125;-47
2024/03/05 09:22:47;;;;;;;14.52;6.57;;;;;;;7.98;76.45;99804.41;4977016;28;20112;-45
2024/03/05 09:25:17;;;;;;;13.07;6.43;;;;;;;7.99;76.00;99811.28;4980209;28;20060;-46
2024/03/05 09:27:45;;;;;;;13.80;6.47;;;;;;;8.03;76.11;99815.59;4984455;28;20046;-47
2024/03/05 09:30:14;;;;;;;12.82;6.25;;;;;;;8.06;76.19;99817.31;4982848;28;20086;-48
2024/03/05 09:32:43;;;;;;;12.02;6.10;;;;;;;8.10;76.29;99819.06;4985744;28;20133;-47
2024/03/05 09:35:12;;;;;;;13.68;5.70;;;;;;;8.13;76.34;99826.81;4985973;28;20105;-46
2024/03/05 09:37:40;;;;;;;14.07;6.47;;;;;;;8.17;75.90;99833.72;4980609;28;20054;-46
2024/03/05 09:40:15;;;;;;;12.25;6.30;;;;;;;8.23;75.62;99836.31;4979709;28;20069;-53
2024/03/05 09:42:43;;;;;;;12.40;5.55;;;;;;;8.29;75.98;99839.78;4983701;28;20055;-49
2024/03/05 09:45:14;;;;;;;12.48;6.32;;;;;;;8.35;76.08;99832.06;4980465;28;20078;-45
2024/03/05 09:47:42;;;;;;;14.20;5.97;;;;;;;8.40;76.29;99838.09;4981808;28;20054;-44
2024/03/05 09:50:13;;;;;;;11.70;5.35;;;;;;;8.45;75.47;99838.94;4980781;28;20046;-47
2024/03/05 09:52:40;;;;;;;14.10;5.88;;;;;;;8.53;76.14;99843.28;4983242;28;20054;-47
2024/03/05 09:55:08;;;;;;;13.60;5.90;;;;;;;8.56;75.90;99851.94;4983812;28;20466;-50
2024/03/05 09:57:39;;;;;;;11.40;5.63;;;;;;;8.59;75.69;99853.66;4980295;28;20054;-50
2024/03/05 10:00:10;;;;;;;12.02;6.25;;;;;;;8.63;75.70;99859.69;4981539;28;20138;-48
2024/03/05 10:02:38;;;;;;;12.25;5.57;;;;;;;8.67;75.11;99864.88;4982224;28;20140;-45
2024/03/05 10:05:09;;;;;;;13.10;4.72;;;;;;;8.69;75.76;99873.47;4978685;28;20409;-49
2024/03/05 10:07:36;;;;;;;11.75;5.20;;;;;;;8.71;75.08;99876.91;4981890;28;20046;-48
2024/03/05 10:12:41;;;;;;;10.52;4.47;;;;;;;8.70;75.14;99864.00;5064724;27;20418;-47
2024/03/05 10:17:52;;;;;;;12.60;5.28;;;;;;;8.68;74.78;99871.75;5071605;27;20386;-46
2024/03/05 10:20:31;;;;;;;12.15;4.50;;;;;;;8.69;74.51;99877.78;5001622;28;20050;-45
2024/03/05 10:23:01;;;;;;;9.10;4.75;;;;;;;8.70;74.82;99885.53;5036902;28;20104;-46
2024/03/05 10:25:30;;;;;;;12.57;4.90;;;;;;;8.73;74.85;99888.13;5007592;28;20046;-46
2024/03/05 10:28:00;;;;;;;11.10;3.80;;;;;;;8.77;74.46;99895.84;5007659;28;20046;-48
2024/03/05 10:30:31;;;;;;;10.77;4.13;;;;;;;8.74;74.67;99892.41;5008861;28;20458;-46
2024/03/05 10:35:37;;;;;;;12.18;5.82;;;;;;;8.78;74.30;99895.03;5025762;27;20403;-52
2024/03/05 10:38:08;;;;;;;9.02;3.28;;;;;;;8.80;74.64;99895.88;5020768;28;20568;-48
2024/03/05 10:40:36;;;;;;;11.30;5.55;;;;;;;8.84;74.42;99895.00;5018802;28;20137;-49
2024/03/05 10:43:06;;;;;;;10.35;5.20;;;;;;;8.90;74.70;99905.38;5020388;28;20049;-47
2024/03/05 10:45:37;;;;;;;11.45;4.75;;;;;;;8.95;74.34;99901.06;5020922;28;20073;-48
2024/03/05 10:48:07;;;;;;;6.90;2.47;;;;;;;9.03;74.16;99913.13;5022169;28;20466;-46
2024/03/05 10:50:37;;;;;;;8.50;3.75;;;;;;;9.05;74.10;99911.44;5014467;28;20435;-44
2024/03/05 10:53:07;;;;;;;5.57;3.45;;;;;;;9.09;73.98;99915.72;5018733;28;20061;-48
2024/03/05 10:55:36;;;;;;;3.95;3.45;;;;;;;9.10;73.95;99922.63;5018008;28;20077;-52
2024/03/05 10:58:13;;;;;;;8.65;3.53;;;;;;;9.12;73.00;99914.00;5018884;28;20522;-49
2024/03/05 11:00:45;;;;;;;6.05;3.55;;;;;;;9.14;73.70;99919.19;5021700;28;20165;-48
2024/03/05 11:03:16;;;;;;;10.45;3.88;;;;;;;9.17;72.82;99916.59;5020664;28;20181;-48
2024/03/05 11:08:24;;;;;;;4.43;1.58;;;;;;;9.21;72.37;99920.91;5039799;27;20405;-48
2024/03/05 11:10:57;;;;;;;23.95;7.72;;;;;;;9.24;72.82;99931.25;5038753;28;20041;-51
2024/03/05 11:13:26;;;;;;;4.43;1.60;;;;;;;9.29;72.32;99930.41;5056428;28;20233;-46
2024/03/05 11:15:56;;;;;;;6.15;1.80;;;;;;;9.35;72.18;99931.25;5053089;28;20052;-46
2024/03/05 11:18:28;;;;;;;5.55;2.33;;;;;;;9.42;72.28;99926.94;5047706;28;20049;-45
2024/03/05 11:20:55;;;;;;;18.33;7.88;;;;;;;9.51;72.49;99934.72;5050062;28;20067;-47
2024/03/05 11:23:29;;;;;;;8.38;2.58;;;;;;;9.62;72.62;99936.41;5046905;28;20396;-47
2024/03/05 11:26:07;;;;;;;4.43;1.20;;;;;;;9.75;72.45;99934.69;5055052;28;20049;-49
2024/03/05 11:28:36;;;;;;;7.82;1.73;;;;;;;9.84;71.95;99933.81;5048869;28;20064;-46
2024/03/05 11:31:20;;;;;;;6.97;1.73;;;;;;;9.87;71.75;99938.97;5048494;28;20095;-50
2024/03/05 11:34:03;;;;;;;7.13;3.47;;;;;;;9.93;71.20;99932.94;5050209;28;20067;-48
2024/03/05 11:36:33;;;;;;;5.90;1.35;;;;;;;10.04;71.41;99946.72;5049707;28;20049;-47
2024/03/05 11:41:42;;;;;;;10.35;3.58;;;;;;;10.15;71.13;99949.28;4991052;27;20413;-49
2024/03/05 11:44:12;;;;;;;21.35;6.70;;;;;;;10.17;70.63;99955.31;5025077;28;20064;-52
2024/03/05 11:46:45;;;;;;;8.15;2.50;;;;;;;10.19;70.01;99960.47;5021807;28;20060;-50
2024/03/05 11:49:13;;;;;;;6.45;2.00;;;;;;;10.21;70.29;99962.22;4996148;28;20050;-51
2024/03/05 11:51:42;;;;;;;3.60;1.13;;;;;;;10.18;70.16;99959.63;4998248;28;20049;-50
2024/03/05 11:54:12;;;;;;;5.65;1.45;;;;;;;10.12;69.76;99960.50;5008495;28;20065;-47
2024/03/05 11:56:39;;;;;;;;;;;;;;;9.99;69.29;99954.47;5014328;28;20058;-51
2024/03/05 11:59:06;;;;;;;5.97;1.45;;;;;;;9.99;69.32;99954.47;5016839;28;19921;-43
2024/03/05 12:01:33;;;;;;;9.65;2.15;;;;;;;9.93;69.92;99953.63;5012797;28;20060;-48
2024/03/05 12:04:05;;;;;;;4.32;1.52;;;;;;;9.87;69.46;99965.69;5015181;28;20053;-49